WetterOnline ( https://www.wetteronline.de )

Wetter aktuell Hunsrück (in 400m)

Aktuelles Wetter: Deuselbach (483m)

6-stündlich | Neueste Meldungen
Ortszeit Temperatur Wetter
So, 22.05. 14:00 20.2° C fast wolkenlos
So, 22.05. 8:00 13.1° C leicht bewölkt
So, 22.05. 2:00 9.6° C wolkenlos
Sa, 21.05. 20:00 16.7° C leicht bewölkt
Sa, 21.05. 14:00 16.4° C wolkig
Sa, 21.05. 8:00 10.3° C wolkig
Sa, 21.05. 2:00 10.5° C wolkig
Fr, 20.05. 20:00 18.0° C bewölkt
Ortszeit Temperatur Wetter
So, 22.05. 19:30 19.4° C bedeckt
So, 22.05. 19:20 19.4° C bedeckt
So, 22.05. 19:10 19.4° C bedeckt
So, 22.05. 19:00 19.6° C bedeckt
So, 22.05. 18:50 19.6° C bedeckt
So, 22.05. 18:40 19.9° C bedeckt
So, 22.05. 18:30 20.3° C bedeckt
So, 22.05. 18:00 20.6° C bedeckt
So, 22.05. 17:30 21.8° C bewölkt
So, 22.05. 17:00 20.8° C wolkig
So, 22.05. 16:30 21.7° C wolkig
Ortszeit Relative Feuchte Sichtweite
So, 22.05. 14:00 44% >70 km
So, 22.05. 8:00 66% 65 km
So, 22.05. 2:00 86% 65 km
Sa, 21.05. 20:00 57% >70 km
Sa, 21.05. 14:00 56% 40 km
Sa, 21.05. 8:00 83% 60 km
Sa, 21.05. 2:00 83% 50 km
Fr, 20.05. 20:00 89% 35 km
Ortszeit Relative Feuchte Sichtweite
So, 22.05. 19:30 51% >70 km
So, 22.05. 19:20 51% -
So, 22.05. 19:10 51% -
So, 22.05. 19:00 54% >70 km
So, 22.05. 18:50 54% -
So, 22.05. 18:40 52% -
So, 22.05. 18:30 53% 65 km
So, 22.05. 18:00 52% >70 km
So, 22.05. 17:30 46% >70 km
So, 22.05. 17:00 47% 60 km
So, 22.05. 16:30 41% 50 km
Ortszeit Niederschlagsmenge Niederschlagsart
So, 22.05. 14:00 0.1 l/m2 in 6 Std. Sprühregen
So, 22.05. 8:00 0.0 l/m2 in 12 Std. -
So, 22.05. 2:00 0.0 l/m2 in 6 Std. -
Sa, 21.05. 20:00 0.0 l/m2 in 12 Std. -
Sa, 21.05. 14:00 0.0 l/m2 in 6 Std. -
Sa, 21.05. 8:00 0.1 l/m2 in 12 Std. -
Sa, 21.05. 2:00 0.1 l/m2 in 6 Std. Regen
Fr, 20.05. 20:00 5 l/m2 in 12 Std. Regen
Ortszeit Niederschlagsmenge Niederschlagsart
So, 22.05. 19:30 0.0 l/m2 in 1 Std. -
So, 22.05. 19:20 keine Meldung -
So, 22.05. 19:10 keine Meldung -
So, 22.05. 19:00 0.0 l/m2 in 1 Std. -
So, 22.05. 18:50 keine Meldung -
So, 22.05. 18:40 keine Meldung -
So, 22.05. 18:30 0.0 l/m2 in 1 Std. -
So, 22.05. 18:00 0.0 l/m2 in 1 Std. -
So, 22.05. 17:30 0.0 l/m2 in 1 Std. -
So, 22.05. 17:00 0.0 l/m2 in 1 Std. -
So, 22.05. 16:30 0.0 l/m2 in 1 Std. -
Ortszeit Stärke Spitze Richtung
km/h Bft. km/h Grad Sektor
So, 22.05. 14:00 7 2 18 40° NO
So, 22.05. 8:00 4 1 14 320° NW
So, 22.05. 2:00 7 2 11 150° SO
Sa, 21.05. 20:00 7 2 39 310° NW
Sa, 21.05. 14:00 22 4 43 290° W
Sa, 21.05. 8:00 20 4 31 260° W
Sa, 21.05. 2:00 22 4 58 270° W
Fr, 20.05. 20:00 29 5 61 280° W
Ortszeit Stärke Spitze Richtung
km/h Bft. km/h Grad Sektor
So, 22.05. 19:30 15 3 26 140° SO
So, 22.05. 19:20 15 3 - 140° SO
So, 22.05. 19:10 14 3 - 140° SO
So, 22.05. 19:00 14 3 25 110° O
So, 22.05. 18:50 14 3 - 110° O
So, 22.05. 18:40 14 3 - 120° SO
So, 22.05. 18:30 15 3 26 120° SO
So, 22.05. 18:00 17 3 24 110° O
So, 22.05. 17:30 4 1 11 10° N
So, 22.05. 17:00 6 1 11 340° N
So, 22.05. 16:30 4 1 11 290° W
Ortszeit Untergrenze Bedeckung Gattung
total tief tief mittel hoch
So, 22.05. 14:00 8100 m 2/8 0/8 - - -
So, 22.05. 8:00 8700 m 3/8 0/8 - - -
So, 22.05. 2:00 - 0/8 0/8 - - -
Sa, 21.05. 20:00 1380 m 6/8 1/8 - - -
Sa, 21.05. 14:00 1170 m 5/8 5/8 - - -
Sa, 21.05. 8:00 690 m 7/8 1/8 - - -
Sa, 21.05. 2:00 570 m 6/8 6/8 - - -
Fr, 20.05. 20:00 270 m 7/8 7/8 - - -
Ortszeit Bedeckungsgrad in Achtel und Wolkenuntergrenze
So, 22.05. 19:30 7(3000m) 8(3600m)
So, 22.05. 19:20 7(3000m) 8(3600m)
So, 22.05. 19:10 8
So, 22.05. 19:00 6(3600m) 8(4200m)
So, 22.05. 18:50 6(3600m) 8(4200m)
So, 22.05. 18:40 8
So, 22.05. 18:30 5(4800m) 8(5700m) 8(7800m)
So, 22.05. 18:00 7(4200m) 8(5700m) 8(6600m)
So, 22.05. 17:30 7(3900m)
So, 22.05. 17:00 1(4200m) 7(8100m) 7(8700m)
So, 22.05. 16:30 3(4200m) 4(5700m) 7(8400m)
Ortszeit Luftdruck NN (hPa) Tendenz (hPa in 3 Std.)
So, 22.05. 14:00 1013 - 1,7
So, 22.05. 8:00 1017 - 0,5
So, 22.05. 2:00 1020 - 1,0
Sa, 21.05. 20:00 1020 - 1,3
Sa, 21.05. 14:00 1023 - 0,4
Sa, 21.05. 8:00 1024 + 0,4
Sa, 21.05. 2:00 1023 + 1,8
Fr, 20.05. 20:00 1015 + 1,1
Ortszeit Luftdruck NN (hPa) Tendenz (hPa in 3 Std.)
So, 22.05. 19:30 1011 - 1,7
So, 22.05. 19:20 1011 keine Meldung
So, 22.05. 19:10 1011 keine Meldung
So, 22.05. 19:00 1010 - 2,3
So, 22.05. 18:50 1010 keine Meldung
So, 22.05. 18:40 1010 keine Meldung
So, 22.05. 18:30 1011 - 1,7
So, 22.05. 18:00 1011 - 1,3
So, 22.05. 17:30 1011 - 1,5
So, 22.05. 17:00 1012 - 1,2
So, 22.05. 16:30 1012 - 1,5
Ortszeit Schneehöhe (cm)
So, 22.05. 14:00 0
So, 22.05. 8:00 0
So, 22.05. 2:00 0
Sa, 21.05. 20:00 0
Sa, 21.05. 14:00 0
Sa, 21.05. 8:00 0
Sa, 21.05. 2:00 0
Fr, 20.05. 20:00 0
Ortszeit Schneehöhe (cm)
So, 22.05. 19:30 0
So, 22.05. 19:20 0
So, 22.05. 19:10 0
So, 22.05. 19:00 0
So, 22.05. 18:50 0
So, 22.05. 18:40 0
So, 22.05. 18:30 0
So, 22.05. 18:00 0
So, 22.05. 17:30 0
So, 22.05. 17:00 0
So, 22.05. 16:30 0
Link zu dieser Seite / Seite empfehlen

Das Wetter in ...